Terminal Aerodrome Forecast
Issued by NWS Tampa Bay Area, FL

Home | Current Version | Previous Version | Text Only | Print | Product List | Glossary On
Versions: 1 2 3 4 5 6 7 8 9 10 11 12 13 14
776
FTUS42 KTBW 251727
TAFFMY
TAF
KFMY 251727Z 2518/2618 26005KT P6SM FEW040 SCT100
     FM260000 27006KT P6SM BKN250
     FM261400 20004KT P6SM SCT200
     FM261700 24005KT P6SM SCT200=

USA.gov is the U.S. government's official web portal to all federal, state and local government web resources and services.